首页
METAR-TAF:

METAR-TAF

机场 :

乔莫·肯雅塔国际机场

奈洛比, 肯尼亚

纬度: 01-19S, 经度: 036-55E, 海拔: 1624米

当前天气观测

该预报发布于4小时和36分钟前的12:00 UTC
风速11节,风向东转东北
温度 27°C
湿度 42%
气压 1019 hPa
能见度10公里或以上
多云层高于2700英尺

METAR: HKJK 231200Z 06011KT 9999 BKN027 27/13 Q1019 NOSIG

时间: 19:36 (16:36 UTC)

预报

该预报发布于5小时和36分钟前的11:00 UTC
预报有效从23日的 12点(UTC)到 24日的 18点(UTC)
风速10节,风向东转东北
能见度10公里或以上
散云层高于3000英尺
短暂存在
从 24日的 00点(UTC)到 24日的 04点(UTC)
成为
从 24日的 08点(UTC)到 24日的 11点(UTC)
多云层高于2700英尺
几率 30% :
短暂存在
从 24日的 13点(UTC)到 24日的 16点(UTC)
少量云层高于2400英尺, 积雨云.
散云层高于2500英尺
多云层高于8000英尺
小阵雨

TAF: HKJK 231100Z 2312/2418 06010KT 9999 SCT030 TEMPO 2400/2404 SCT008BKN016 BECMG 2408/2411 BKN027 PROB30 TEMPO 2413/2416 -SHRA FEW024CB SCT025 BKN080

超过4000个机场的气象观测和天气预报(METAR&TAF报告)。

可查询的气象台以黄色和红色小点在地图上表示。

将鼠标移到小点上方,可查看气象台名称。

然后点击查看天气观测和预报。

如需切换地图:点击带黑十字的绿色按钮放大地图;点击带横线的绿色按钮缩小地图;或者点击绿色箭头查看邻近地区的地图。


METAR-TAF: